Derby, Texas
Current Conditions -  °F | °C
As of 6:53 AM on Wednesday 22 Oct 2014 (Local Time) from KCOT Reporting Station
Clear Clear  
Wind Chill: 66°   Ceiling: Unl
Heat Index: 66°   Visibility: 10mi
Dew Point: 59°   Wind: 6mph
Humidity: 78%   Direction: 50°NE
Pressure: 30.04"   Gusts: NA
Location:  28.7236°N, 99.2694°W
Report Text: KCOT 221153Z AUTO 05005KT 10SM CLR 19/15 A3004 RMK AO2 SLP164 T01890150 10239 20189 53010 $
Loading
Personal Weather Stations






























Interactive Weather Map
Tropical Storm Tracking
New forecast layout! Learn more

10-Day Weather Forecast

Advertisements
Track Severe Weather on mobile